Time;durP1;ratioP1;P1;durP2;ratioP2;P2;SDS_P1;SDS_P2;PMS_P1;PMS_P2;Temp;Humidity;BMP_temperature;BMP_pressure;BME280_temperature;BME280_humidity;BME280_pressure;Samples;Min_cycle;Max_cycle;Signal;HPM_P1;HPM_P2
2020/12/07 00:01:05;;;;;;;;;;;21.60;55.30;;;;;;5011694;28;1128;-65
2020/12/07 00:03:30;;;;;;;;;;;21.60;55.30;;;;;;5012003;28;1085;-66
2020/12/07 00:05:56;;;;;;;;;;;21.60;55.30;;;;;;5012907;28;1021;-64
2020/12/07 00:08:21;;;;;;;;;;;21.60;55.40;;;;;;5012844;28;1914;-65
2020/12/07 00:10:47;;;;;;;;;;;21.60;55.40;;;;;;5012694;28;1052;-66
2020/12/07 00:13:12;;;;;;;;;;;21.50;55.40;;;;;;5029567;28;1064;-65
2020/12/07 00:15:38;;;;;;;;;;;21.50;55.50;;;;;;5012868;28;1064;-65
2020/12/07 00:18:03;;;;;;;;;;;21.50;55.50;;;;;;5012484;28;1291;-65
2020/12/07 00:20:29;;;;;;;;;;;21.50;55.50;;;;;;5027168;28;1135;-65
2020/12/07 00:22:55;;;;;;;;;;;21.50;55.60;;;;;;5011757;28;1065;-65
2020/12/07 00:25:20;;;;;;;;;;;21.50;55.60;;;;;;5012151;28;1080;-65
2020/12/07 00:27:46;;;;;;;;;;;21.50;55.60;;;;;;5012705;28;1949;-65
2020/12/07 00:30:11;;;;;;;;;;;21.40;55.60;;;;;;5011295;28;1286;-65
2020/12/07 00:32:37;;;;;;;;;;;21.40;55.70;;;;;;5012839;28;1079;-66
2020/12/07 00:35:02;;;;;;;;;;;21.40;55.70;;;;;;5012026;28;1048;-65
2020/12/07 00:37:28;;;;;;;;;;;21.40;55.70;;;;;;5011301;28;1064;-64
2020/12/07 00:39:53;;;;;;;;;;;21.40;55.80;;;;;;5016061;28;1298;-65
2020/12/07 00:42:19;;;;;;;;;;;21.40;55.80;;;;;;5022538;28;929;-65
2020/12/07 00:44:44;;;;;;;;;;;21.40;56.40;;;;;;5032720;28;1131;-65
2020/12/07 00:47:10;;;;;;;;;;;21.30;55.80;;;;;;5032861;28;1910;-65
2020/12/07 00:49:35;;;;;;;;;;;21.30;55.80;;;;;;5030271;28;1402;-67
2020/12/07 00:52:01;;;;;;;;;;;21.30;55.90;;;;;;5022717;28;1278;-65
2020/12/07 00:54:26;;;;;;;;;;;21.30;55.90;;;;;;5022423;28;1277;-65
2020/12/07 00:56:52;;;;;;;;;;;21.30;55.90;;;;;;5022063;28;1297;-66
2020/12/07 00:59:18;;;;;;;;;;;21.30;56.00;;;;;;5023356;28;1396;-65
2020/12/07 01:01:43;;;;;;;;;;;21.30;56.00;;;;;;5022145;28;1329;-69
2020/12/07 01:04:09;;;;;;;;;;;21.30;56.10;;;;;;5022409;28;1379;-65
2020/12/07 01:06:34;;;;;;;;;;;21.30;56.10;;;;;;5023371;28;1384;-66
2020/12/07 01:09:00;;;;;;;;;;;21.20;56.10;;;;;;5020830;28;1911;-66
2020/12/07 01:11:25;;;;;;;;;;;21.20;56.10;;;;;;5026341;28;1328;-65
2020/12/07 01:13:51;;;;;;;;;;;21.20;56.10;;;;;;5022083;28;1316;-65
2020/12/07 01:16:25;;;;;;;;;;;21.20;56.10;;;;;;5022171;28;1345;-67
2020/12/07 01:18:50;;;;;;;;;;;21.20;56.20;;;;;;5022579;28;1372;-65
2020/12/07 01:21:16;;;;;;;;;;;21.20;56.20;;;;;;5022320;28;1355;-67
2020/12/07 01:23:44;;;;;;;;;;;21.20;56.20;;;;;;5021887;28;1285;-65
2020/12/07 01:26:11;;;;;;;;;;;21.20;56.20;;;;;;5024299;28;1414;-68
2020/12/07 01:28:36;;;;;;;;;;;21.10;56.20;;;;;;5019250;28;1926;-68
2020/12/07 01:31:02;;;;;;;;;;;21.10;56.20;;;;;;5022784;28;1395;-68
2020/12/07 01:33:28;;;;;;;;;;;21.10;56.30;;;;;;5023955;28;1378;-69
2020/12/07 01:35:54;;;;;;;;;;;21.10;56.30;;;;;;5022430;28;1297;-68
2020/12/07 01:38:19;;;;;;;;;;;21.10;56.40;;;;;;5016176;28;1489;-68
2020/12/07 01:40:45;;;;;;;;;;;21.10;56.40;;;;;;5015495;28;1719;-68
2020/12/07 01:43:10;;;;;;;;;;;21.10;56.40;;;;;;5016611;28;1688;-68
2020/12/07 01:45:35;;;;;;;;;;;21.10;56.40;;;;;;5016921;28;1689;-68
2020/12/07 01:48:01;;;;;;;;;;;21.10;56.40;;;;;;5016658;28;1911;-68
2020/12/07 01:50:26;;;;;;;;;;;21.10;56.50;;;;;;5016585;28;1016;-67
2020/12/07 01:52:52;;;;;;;;;;;21.10;56.50;;;;;;5042092;28;1616;-68
2020/12/07 01:55:17;;;;;;;;;;;21.00;56.50;;;;;;5015655;28;1636;-68
2020/12/07 01:57:43;;;;;;;;;;;21.10;56.50;;;;;;5016697;28;1696;-69
2020/12/07 02:00:08;;;;;;;;;;;21.00;56.50;;;;;;5016893;28;1645;-69
2020/12/07 02:02:34;;;;;;;;;;;21.00;56.50;;;;;;5016621;28;1472;-69
2020/12/07 02:04:59;;;;;;;;;;;21.00;56.50;;;;;;5015564;28;1298;-69
2020/12/07 02:07:25;;;;;;;;;;;21.00;56.60;;;;;;5010961;28;1961;-68
2020/12/07 02:09:50;;;;;;;;;;;21.00;56.60;;;;;;5016461;28;1643;-68
2020/12/07 02:12:15;;;;;;;;;;;21.00;56.60;;;;;;5032253;28;1388;-68
2020/12/07 02:14:41;;;;;;;;;;;21.00;56.60;;;;;;5016282;28;1635;-68
2020/12/07 02:17:06;;;;;;;;;;;21.00;56.70;;;;;;5014895;28;1822;-68
2020/12/07 02:19:33;;;;;;;;;;;21.00;57.20;;;;;;5021353;28;1644;-68
2020/12/07 02:21:58;;;;;;;;;;;21.00;56.70;;;;;;5025245;28;1674;-68
2020/12/07 02:24:24;;;;;;;;;;;21.00;56.70;;;;;;5016319;28;1692;-68
2020/12/07 02:26:49;;;;;;;;;;;20.90;56.70;;;;;;5014832;28;1903;-68
2020/12/07 02:29:15;;;;;;;;;;;20.90;56.70;;;;;;5014941;28;1403;-68
2020/12/07 02:31:40;;;;;;;;;;;20.90;56.70;;;;;;5016063;28;1721;-69
2020/12/07 02:34:06;;;;;;;;;;;20.90;56.70;;;;;;5016215;28;1691;-68
2020/12/07 02:36:31;;;;;;;;;;;20.90;56.70;;;;;;5015634;28;1681;-68
2020/12/07 02:38:56;;;;;;;;;;;20.90;56.70;;;;;;5015780;28;1280;-69
2020/12/07 02:41:22;;;;;;;;;;;20.90;56.80;;;;;;5014198;28;1473;-68
2020/12/07 02:43:47;;;;;;;;;;;20.90;56.80;;;;;;5015425;28;1628;-66
2020/12/07 02:46:13;;;;;;;;;;;20.90;56.80;;;;;;5015496;28;1600;-68
2020/12/07 02:48:38;;;;;;;;;;;20.90;56.80;;;;;;5015596;28;1931;-68
2020/12/07 02:51:04;;;;;;;;;;;20.90;56.80;;;;;;5018140;28;1611;-67
2020/12/07 02:53:29;;;;;;;;;;;20.90;56.80;;;;;;5039482;28;1387;-68
2020/12/07 02:55:55;;;;;;;;;;;20.90;56.90;;;;;;5015462;28;1417;-68
2020/12/07 02:58:20;;;;;;;;;;;20.90;56.90;;;;;;5014193;28;1631;-69
2020/12/07 03:00:46;;;;;;;;;;;20.80;56.90;;;;;;5014471;28;1718;-67
2020/12/07 03:03:11;;;;;;;;;;;20.90;56.90;;;;;;5015703;28;1671;-68
2020/12/07 03:05:36;;;;;;;;;;;20.80;56.90;;;;;;5015416;28;1651;-68
2020/12/07 03:08:02;;;;;;;;;;;20.80;56.90;;;;;;5015142;28;1973;-68
2020/12/07 03:10:27;;;;;;;;;;;20.80;56.90;;;;;;5015285;28;1624;-68
2020/12/07 03:12:53;;;;;;;;;;;20.80;56.90;;;;;;5030518;28;1482;-69
2020/12/07 03:15:18;;;;;;;;;;;20.80;56.90;;;;;;5014144;28;1421;-68
2020/12/07 03:17:44;;;;;;;;;;;20.80;56.90;;;;;;5015189;28;1666;-68
2020/12/07 03:20:09;;;;;;;;;;;20.80;57.00;;;;;;5028850;28;1614;-69
2020/12/07 03:22:35;;;;;;;;;;;20.80;57.00;;;;;;5014340;28;1567;-69
2020/12/07 03:25:00;;;;;;;;;;;20.80;57.00;;;;;;5015176;28;1636;-67
2020/12/07 03:27:26;;;;;;;;;;;20.80;57.00;;;;;;5014743;28;1971;-69
2020/12/07 03:29:51;;;;;;;;;;;20.80;57.00;;;;;;5015053;28;1437;-69
2020/12/07 03:32:17;;;;;;;;;;;20.80;57.00;;;;;;5014780;28;1644;-68
2020/12/07 03:34:42;;;;;;;;;;;20.80;57.00;;;;;;5014970;28;1612;-67
2020/12/07 03:37:08;;;;;;;;;;;20.70;57.00;;;;;;5014368;28;1409;-68
2020/12/07 03:39:33;;;;;;;;;;;20.80;57.00;;;;;;5014775;28;1656;-68
2020/12/07 03:41:59;;;;;;;;;;;20.70;57.00;;;;;;5013501;28;1735;-69
2020/12/07 03:44:24;;;;;;;;;;;20.70;57.00;;;;;;4997077;28;1633;-69
2020/12/07 03:46:49;;;;;;;;;;;20.70;57.00;;;;;;5014569;28;1426;-69
2020/12/07 03:49:15;;;;;;;;;;;20.70;57.00;;;;;;5014202;28;1899;-68
2020/12/07 03:51:40;;;;;;;;;;;20.70;57.10;;;;;;5025911;28;1437;-69
2020/12/07 03:54:06;;;;;;;;;;;20.70;57.00;;;;;;5028285;28;1461;-69
2020/12/07 03:56:31;;;;;;;;;;;20.70;57.10;;;;;;5014650;28;1668;-69
2020/12/07 03:58:57;;;;;;;;;;;20.70;57.10;;;;;;5012846;28;1641;-67
2020/12/07 04:01:22;;;;;;;;;;;20.70;57.10;;;;;;5013252;28;1730;-68
2020/12/07 04:03:48;;;;;;;;;;;20.70;57.10;;;;;;5013267;28;2532;-68
2020/12/07 04:06:27;;;;;;;;;;;20.70;57.10;;;;;;5014197;28;1363;-68
2020/12/07 04:08:52;;;;;;;;;;;20.70;57.10;;;;;;5014152;28;1902;-69
2020/12/07 04:11:18;;;;;;;;;;;20.70;57.10;;;;;;5018811;28;1701;-68
2020/12/07 04:13:43;;;;;;;;;;;20.70;57.00;;;;;;5026521;28;1656;-66
2020/12/07 04:16:08;;;;;;;;;;;20.80;57.00;;;;;;5012761;28;1790;-68
2020/12/07 04:18:34;;;;;;;;;;;20.80;56.90;;;;;;5014045;28;1650;-67
2020/12/07 04:21:02;;;;;;;;;;;20.90;56.80;;;;;;5029599;28;1630;-68
2020/12/07 04:23:28;;;;;;;;;;;21.00;56.70;;;;;;5013914;28;1382;-68
2020/12/07 04:25:54;;;;;;;;;;;21.00;56.50;;;;;;5013966;28;1357;-67
2020/12/07 04:28:20;;;;;;;;;;;21.10;56.40;;;;;;5013506;28;1894;-68
2020/12/07 04:30:45;;;;;;;;;;;21.20;56.20;;;;;;5014069;28;1644;-67
2020/12/07 04:33:11;;;;;;;;;;;21.30;55.90;;;;;;5012403;28;1705;-69
2020/12/07 04:35:36;;;;;;;;;;;21.40;55.80;;;;;;5013741;28;1721;-68
2020/12/07 04:38:02;;;;;;;;;;;21.50;55.50;;;;;;5013429;28;1418;-68
2020/12/07 04:40:27;;;;;;;;;;;21.60;55.40;;;;;;5012592;28;1647;-68
2020/12/07 04:42:53;;;;;;;;;;;21.60;55.20;;;;;;5013796;28;1643;-68
2020/12/07 04:45:19;;;;;;;;;;;21.70;55.00;;;;;;5013578;28;1651;-68
2020/12/07 04:47:44;;;;;;;;;;;21.70;54.90;;;;;;5012065;28;2408;-68
2020/12/07 04:50:09;;;;;;;;;;;21.80;54.70;;;;;;5012320;28;1707;-67
2020/12/07 04:52:35;;;;;;;;;;;21.80;54.60;;;;;;5039116;28;1536;-68
2020/12/07 04:55:02;;;;;;;;;;;21.90;54.50;;;;;;5012877;28;1407;-68
2020/12/07 04:57:28;;;;;;;;;;;21.90;54.40;;;;;;5012280;28;1635;-69
2020/12/07 04:59:53;;;;;;;;;;;22.00;54.40;;;;;;5013443;28;1457;-69
2020/12/07 05:02:19;;;;;;;;;;;22.00;54.30;;;;;;5011944;28;1598;-69
2020/12/07 05:04:44;;;;;;;;;;;22.10;54.20;;;;;;5013222;28;1669;-68
2020/12/07 05:07:10;;;;;;;;;;;22.10;54.20;;;;;;5011937;28;1975;-69
2020/12/07 05:09:36;;;;;;;;;;;22.10;54.10;;;;;;5013416;28;1303;-69
2020/12/07 05:12:06;;;;;;;;;;;22.20;54.10;;;;;;5029352;28;1629;-68
2020/12/07 05:14:32;;;;;;;;;;;22.20;54.00;;;;;;5013369;28;1374;-69
2020/12/07 05:16:58;;;;;;;;;;;22.20;53.90;;;;;;5011953;28;1702;-69
2020/12/07 05:19:23;;;;;;;;;;;22.20;53.80;;;;;;5015868;28;1654;-69
2020/12/07 05:21:49;;;;;;;;;;;22.20;53.80;;;;;;5025442;28;1410;-69
2020/12/07 05:24:15;;;;;;;;;;;22.30;53.80;;;;;;5011737;28;1706;-68
2020/12/07 05:26:41;;;;;;;;;;;22.30;53.80;;;;;;5011703;28;1696;-68
2020/12/07 05:29:10;;;;;;;;;;;22.30;53.70;;;;;;5012555;28;1898;-68
2020/12/07 05:31:36;;;;;;;;;;;22.30;54.30;;;;;;5012105;28;1663;-69
2020/12/07 05:34:01;;;;;;;;;;;22.30;53.70;;;;;;5011838;28;1610;-68
2020/12/07 05:36:27;;;;;;;;;;;22.30;53.70;;;;;;5011827;28;1646;-68
2020/12/07 05:38:52;;;;;;;;;;;22.40;53.70;;;;;;5013034;28;1685;-68
2020/12/07 05:41:21;;;;;;;;;;;22.40;53.70;;;;;;5012998;28;1418;-68
2020/12/07 05:43:46;;;;;;;;;;;22.40;53.60;;;;;;5012013;28;1605;-69
2020/12/07 05:46:12;;;;;;;;;;;22.40;53.60;;;;;;5011656;28;1197;-69
2020/12/07 05:48:37;;;;;;;;;;;22.40;53.60;;;;;;5011579;28;1964;-68
2020/12/07 05:51:03;;;;;;;;;;;22.40;53.60;;;;;;5015193;28;1617;-68
2020/12/07 05:53:30;;;;;;;;;;;22.40;53.60;;;;;;5037288;28;1461;-67
2020/12/07 05:55:56;;;;;;;;;;;22.40;53.60;;;;;;5011316;28;1627;-68
2020/12/07 05:58:21;;;;;;;;;;;22.40;53.60;;;;;;5011900;28;1795;-66
2020/12/07 06:00:47;;;;;;;;;;;22.40;53.60;;;;;;5013026;28;1711;-66
2020/12/07 06:03:13;;;;;;;;;;;22.40;53.60;;;;;;5012788;28;1216;-65
2020/12/07 06:05:38;;;;;;;;;;;22.40;53.60;;;;;;5011526;28;1219;-65
2020/12/07 06:08:06;;;;;;;;;;;22.40;53.60;;;;;;5011140;28;1970;-65
2020/12/07 06:10:38;;;;;;;;;;;22.40;53.70;;;;;;5012814;28;1177;-66
2020/12/07 06:13:15;;;;;;;;;;;22.40;53.70;;;;;;5029451;28;1150;-65
2020/12/07 06:15:44;;;;;;;;;;;22.40;53.80;;;;;;5011251;28;1392;-65
2020/12/07 06:18:27;;;;;;;;;;;22.40;53.80;;;;;;5014642;28;1289;-66
2020/12/07 06:20:53;;;;;;;;;;;22.30;53.80;;;;;;5031063;28;1148;-66
2020/12/07 06:23:19;;;;;;;;;;;22.40;53.90;;;;;;5014911;28;1140;-65
2020/12/07 06:25:44;;;;;;;;;;;22.30;53.90;;;;;;5014586;28;1100;-66
2020/12/07 06:28:09;;;;;;;;;;;22.30;53.90;;;;;;5014603;28;1910;-66
2020/12/07 06:30:36;;;;;;;;;;;22.30;54.00;;;;;;5015858;28;1132;-66
2020/12/07 06:33:05;;;;;;;;;;;22.30;54.00;;;;;;5015898;28;1640;-65
2020/12/07 06:35:30;;;;;;;;;;;22.20;54.00;;;;;;5015411;28;1167;-66
2020/12/07 06:37:59;;;;;;;;;;;22.20;54.10;;;;;;5014504;28;1065;-68
2020/12/07 06:40:24;;;;;;;;;;;22.20;54.10;;;;;;5014321;28;1340;-66
2020/12/07 06:42:50;;;;;;;;;;;22.20;54.20;;;;;;5015780;28;1112;-66
2020/12/07 06:45:21;;;;;;;;;;;22.20;54.20;;;;;;5014343;28;1093;-65
2020/12/07 06:47:47;;;;;;;;;;;22.20;54.30;;;;;;5015428;28;1895;-66
2020/12/07 06:50:15;;;;;;;;;;;22.10;54.30;;;;;;5014378;28;1229;-66
2020/12/07 06:52:42;;;;;;;;;;;22.10;54.30;;;;;;5040638;28;1278;-66
2020/12/07 06:55:09;;;;;;;;;;;22.10;54.40;;;;;;5015517;28;1139;-67
2020/12/07 06:57:48;;;;;;;;;;;22.10;54.40;;;;;;5014271;28;1116;-65
2020/12/07 07:00:17;;;;;;;;;;;22.10;54.40;;;;;;5014111;28;1198;-65
2020/12/07 07:02:46;;;;;;;;;;;22.10;54.50;;;;;;5027339;28;1161;-66
2020/12/07 07:05:12;;;;;;;;;;;22.10;54.50;;;;;;5026619;28;1170;-66
2020/12/07 07:07:38;;;;;;;;;;;22.10;54.60;;;;;;5029191;28;1972;-65
2020/12/07 07:10:03;;;;;;;;;;;22.00;54.50;;;;;;5019053;28;1933;-64
2020/12/07 07:12:29;;;;;;;;;;;22.00;54.60;;;;;;5040446;28;1017;-64
2020/12/07 07:14:56;;;;;;;;;;;22.00;54.60;;;;;;5030921;28;1057;-65
2020/12/07 07:17:22;;;;;;;;;;;22.00;54.60;;;;;;5018570;28;1205;-65
2020/12/07 07:19:48;;;;;;;;;;;22.00;54.70;;;;;;5022749;28;1198;-65
2020/12/07 07:22:13;;;;;;;;;;;21.90;54.70;;;;;;5018940;28;1114;-65
2020/12/07 07:25:04;;;;;;;;;;;21.90;54.70;;;;;;5014837;28;1143;-65
2020/12/07 07:30:12;;;;;;;;;;;21.90;54.80;;;;;;5013504;28;1237;-66
2020/12/07 07:32:41;;;;;;;;;;;21.90;54.80;;;;;;5014497;28;1068;-64
2020/12/07 07:35:07;;;;;;;;;;;21.90;54.90;;;;;;5014613;28;1186;-64
2020/12/07 07:37:32;;;;;;;;;;;21.90;54.90;;;;;;5014202;28;1124;-64
2020/12/07 07:39:59;;;;;;;;;;;21.80;54.90;;;;;;5014374;28;1321;-63
2020/12/07 07:42:25;;;;;;;;;;;21.80;54.90;;;;;;5013450;28;1105;-63
2020/12/07 07:44:50;;;;;;;;;;;21.80;55.00;;;;;;5016170;28;974;-63
2020/12/07 07:47:20;;;;;;;;;;;21.80;55.00;;;;;;5013027;28;1972;-64
2020/12/07 07:50:06;;;;;;;;;;;21.80;55.60;;;;;;5014023;28;1273;-65
2020/12/07 07:58:49;;;;;;;;;;;21.70;55.00;;;;;;5031828;28;1169;-65
2020/12/07 08:01:01;;;;;;;;;;;21.70;55.00;;;;;;5031364;28;1415;-65
2020/12/07 08:17:13;;;;;;;;;;;21.70;55.20;;;;;;5012887;28;1105;-64
2020/12/07 08:19:39;;;;;;;;;;;21.80;55.10;;;;;;5020929;28;1296;-64
2020/12/07 08:22:31;;;;;;;;;;;21.80;55.00;;;;;;5020896;28;1135;-64
2020/12/07 08:25:01;;;;;;;;;;;21.90;55.00;;;;;;5011949;28;1163;-64
2020/12/07 08:27:30;;;;;;;;;;;21.90;54.80;;;;;;5012466;28;1959;-63
2020/12/07 08:30:05;;;;;;;;;;;22.00;54.70;;;;;;5012191;28;1281;-64
2020/12/07 08:32:30;;;;;;;;;;;22.10;54.70;;;;;;5012726;28;1230;-64
2020/12/07 08:34:56;;;;;;;;;;;22.10;54.50;;;;;;5013282;28;1053;-63
2020/12/07 08:37:21;;;;;;;;;;;22.10;54.40;;;;;;5013501;28;1113;-64
2020/12/07 08:39:47;;;;;;;;;;;22.20;54.40;;;;;;5011463;28;1300;-64
2020/12/07 08:42:12;;;;;;;;;;;22.20;54.20;;;;;;5013912;28;1088;-65
2020/12/07 08:44:38;;;;;;;;;;;22.20;54.20;;;;;;5012250;28;1330;-63
2020/12/07 08:47:07;;;;;;;;;;;22.30;54.10;;;;;;5011796;28;1969;-64
2020/12/07 08:49:32;;;;;;;;;;;22.30;54.10;;;;;;5013164;28;1359;-64
2020/12/07 08:51:58;;;;;;;;;;;22.30;54.00;;;;;;5029685;28;1207;-64
2020/12/07 08:54:24;;;;;;;;;;;22.30;54.00;;;;;;5022532;28;1146;-64
2020/12/07 08:56:49;;;;;;;;;;;22.30;53.90;;;;;;5013358;28;1100;-65
2020/12/07 08:59:15;;;;;;;;;;;22.30;53.90;;;;;;5012979;28;1201;-65
2020/12/07 09:01:41;;;;;;;;;;;22.40;54.00;;;;;;5013361;28;1096;-65
2020/12/07 09:04:10;;;;;;;;;;;22.30;53.90;;;;;;5030998;28;1197;-68
2020/12/07 09:06:36;;;;;;;;;;;22.30;54.50;;;;;;5032882;28;1130;-65
2020/12/07 09:09:02;;;;;;;;;;;22.30;54.00;;;;;;5032466;28;1902;-64
2020/12/07 09:11:27;;;;;;;;;;;22.30;54.00;;;;;;5026165;28;1195;-64
2020/12/07 09:13:53;;;;;;;;;;;22.30;54.00;;;;;;5026095;28;1162;-68
2020/12/07 09:16:20;;;;;;;;;;;22.30;54.00;;;;;;5021837;28;1287;-64
2020/12/07 09:18:46;;;;;;;;;;;22.30;54.00;;;;;;5022123;28;1336;-64
2020/12/07 09:21:11;;;;;;;;;;;22.30;54.10;;;;;;5025459;28;1240;-66
2020/12/07 09:23:39;;;;;;;;;;;22.30;54.10;;;;;;5023757;28;1187;-65
2020/12/07 09:26:05;;;;;;;;;;;22.30;54.10;;;;;;5032587;28;1059;-64
2020/12/07 09:28:31;;;;;;;;;;;22.30;54.50;;;;;;5032402;28;1979;-65
2020/12/07 09:30:56;;;;;;;;;;;22.20;54.20;;;;;;5031258;28;1065;-65
2020/12/07 09:33:22;;;;;;;;;;;22.20;54.20;;;;;;5031489;28;1108;-65
2020/12/07 09:35:47;;;;;;;;;;;22.20;54.20;;;;;;5031311;28;1044;-67
2020/12/07 09:38:13;;;;;;;;;;;22.20;54.30;;;;;;5032574;28;1379;-65
2020/12/07 09:40:38;;;;;;;;;;;22.20;54.30;;;;;;5032702;28;1087;-65
2020/12/07 09:43:03;;;;;;;;;;;22.20;54.30;;;;;;5031295;28;1033;-66
2020/12/07 09:45:29;;;;;;;;;;;22.10;54.40;;;;;;5032476;28;1075;-66
2020/12/07 09:47:54;;;;;;;;;;;22.10;54.40;;;;;;5032221;28;1902;-64
2020/12/07 09:50:20;;;;;;;;;;;22.10;54.40;;;;;;5030690;28;1885;-64
2020/12/07 09:52:45;;;;;;;;;;;22.10;54.50;;;;;;5034808;28;1349;-67
2020/12/07 09:55:11;;;;;;;;;;;22.10;54.50;;;;;;5015755;28;1163;-65
2020/12/07 09:57:36;;;;;;;;;;;22.10;54.60;;;;;;5033450;28;1135;-64
2020/12/07 10:00:03;;;;;;;;;;;22.10;54.60;;;;;;5015356;28;1314;-65
2020/12/07 10:02:28;;;;;;;;;;;22.10;54.60;;;;;;5015408;28;1068;-65
2020/12/07 10:04:54;;;;;;;;;;;22.10;54.70;;;;;;5015253;28;1115;-65
2020/12/07 10:07:19;;;;;;;;;;;22.10;54.60;;;;;;5015010;28;1922;-65
2020/12/07 10:09:45;;;;;;;;;;;22.10;54.60;;;;;;5021202;28;1268;-65
2020/12/07 10:12:10;;;;;;;;;;;22.10;54.50;;;;;;5029631;28;1093;-64
2020/12/07 10:14:36;;;;;;;;;;;22.10;54.50;;;;;;5020777;28;1143;-64
2020/12/07 10:17:01;;;;;;;;;;;22.20;54.40;;;;;;5035024;28;1078;-64
2020/12/07 10:19:27;;;;;;;;;;;22.20;54.30;;;;;;5036571;28;1210;-65
2020/12/07 10:21:53;;;;;;;;;;;22.20;54.30;;;;;;5026500;28;1135;-64
2020/12/07 10:24:19;;;;;;;;;;;22.30;54.20;;;;;;5016190;28;1123;-64
2020/12/07 10:26:45;;;;;;;;;;;22.30;54.10;;;;;;5015700;28;1048;-64
2020/12/07 10:29:10;;;;;;;;;;;22.30;54.10;;;;;;5014634;28;1898;-66
2020/12/07 10:31:36;;;;;;;;;;;22.40;54.00;;;;;;5015813;28;1017;-64
2020/12/07 10:34:01;;;;;;;;;;;22.40;54.00;;;;;;5015759;28;1100;-64
2020/12/07 10:36:27;;;;;;;;;;;22.40;53.90;;;;;;5015766;28;1229;-65
2020/12/07 10:38:52;;;;;;;;;;;22.40;53.80;;;;;;5015570;28;1408;-64
2020/12/07 10:41:18;;;;;;;;;;;22.50;53.80;;;;;;5015764;28;1179;-64
2020/12/07 10:43:43;;;;;;;;;;;22.50;53.80;;;;;;5014691;28;1176;-64
2020/12/07 10:46:12;;;;;;;;;;;22.50;53.80;;;;;;5014152;28;1092;-65
2020/12/07 10:48:38;;;;;;;;;;;22.50;53.70;;;;;;5019839;28;1974;-67
2020/12/07 10:51:03;;;;;;;;;;;22.50;53.70;;;;;;5031614;28;952;-65
2020/12/07 10:53:29;;;;;;;;;;;22.50;53.70;;;;;;5038271;28;1154;-68
2020/12/07 10:55:54;;;;;;;;;;;22.50;53.70;;;;;;5018759;28;1100;-65
2020/12/07 10:58:20;;;;;;;;;;;22.50;53.70;;;;;;5012964;28;1241;-65
2020/12/07 11:00:46;;;;;;;;;;;22.50;53.70;;;;;;5012904;28;1150;-66
2020/12/07 11:03:11;;;;;;;;;;;22.50;53.70;;;;;;5012289;28;1131;-65
2020/12/07 11:05:38;;;;;;;;;;;22.50;53.60;;;;;;5014277;28;1107;-67
2020/12/07 11:08:12;;;;;;;;;;;22.50;53.70;;;;;;5039618;28;1969;-64
2020/12/07 11:10:37;;;;;;;;;;;22.50;53.60;;;;;;5022641;28;1972;-66
2020/12/07 11:13:10;;;;;;;;;;;22.50;53.60;;;;;;5030399;28;1060;-66
2020/12/07 11:15:35;;;;;;;;;;;22.50;53.60;;;;;;5014200;28;1056;-66
2020/12/07 11:18:01;;;;;;;;;;;22.50;53.60;;;;;;5012444;28;1147;-66
2020/12/07 11:20:26;;;;;;;;;;;22.50;53.70;;;;;;5028615;28;1148;-65
2020/12/07 11:22:52;;;;;;;;;;;22.50;53.70;;;;;;5014051;28;1044;-65
2020/12/07 11:25:17;;;;;;;;;;;22.50;53.70;;;;;;5013638;28;1084;-68
2020/12/07 11:27:43;;;;;;;;;;;22.40;53.70;;;;;;5013632;28;1895;-64
2020/12/07 11:30:08;;;;;;;;;;;22.40;53.70;;;;;;5013899;28;1190;-65
2020/12/07 11:32:34;;;;;;;;;;;22.40;53.70;;;;;;5013811;28;1080;-66
2020/12/07 11:34:59;;;;;;;;;;;22.40;53.80;;;;;;5013710;28;1041;-64
2020/12/07 11:37:25;;;;;;;;;;;22.40;53.80;;;;;;5013781;28;1072;-64
2020/12/07 11:39:56;;;;;;;;;;;22.40;53.80;;;;;;5013631;28;1310;-65
2020/12/07 11:44:47;;;;;;;;;;;22.40;53.90;;;;;;5018396;28;1123;-64
2020/12/07 11:47:14;;;;;;;;;;;22.40;53.90;;;;;;5019446;28;1949;-65
2020/12/07 11:49:39;;;;;;;;;;;22.40;54.00;;;;;;5021228;28;1253;-65
2020/12/07 11:52:05;;;;;;;;;;;22.40;53.90;;;;;;5026570;28;1905;-65
2020/12/07 11:54:30;;;;;;;;;;;22.30;53.90;;;;;;5021891;28;1293;-66
2020/12/07 11:56:56;;;;;;;;;;;22.30;53.90;;;;;;5014843;28;1444;-67
2020/12/07 11:59:21;;;;;;;;;;;22.30;53.90;;;;;;5012298;28;1408;-66
2020/12/07 12:01:47;;;;;;;;;;;22.40;54.00;;;;;;4995694;28;1220;-66
2020/12/07 12:04:12;;;;;;;;;;;22.40;54.00;;;;;;5013118;28;1330;-66
2020/12/07 12:06:38;;;;;;;;;;;22.40;54.00;;;;;;5013202;28;1096;-66
2020/12/07 12:09:09;;;;;;;;;;;22.40;54.00;;;;;;5011686;28;1938;-66
2020/12/07 12:11:36;;;;;;;;;;;22.30;53.90;;;;;;5021043;28;1195;-66
2020/12/07 12:14:02;;;;;;;;;;;22.40;54.00;;;;;;5018580;28;1111;-66
2020/12/07 12:16:27;;;;;;;;;;;22.40;53.50;;;;;;5012186;28;1016;-66
2020/12/07 12:18:55;;;;;;;;;;;22.30;53.50;;;;;;5012766;28;1214;-66
2020/12/07 12:21:21;;;;;;;;;;;22.30;53.60;;;;;;5027142;28;1100;-66
2020/12/07 12:23:47;;;;;;;;;;;22.30;53.70;;;;;;5011643;28;1069;-66
2020/12/07 12:26:13;;;;;;;;;;;22.30;53.70;;;;;;5011488;28;1147;-66
2020/12/07 12:28:39;;;;;;;;;;;22.30;53.70;;;;;;5011212;28;1926;-66
2020/12/07 12:31:04;;;;;;;;;;;22.30;53.80;;;;;;5012904;28;1088;-66
2020/12/07 12:33:30;;;;;;;;;;;22.30;53.80;;;;;;5012539;28;1104;-66
2020/12/07 12:35:55;;;;;;;;;;;22.30;54.40;;;;;;5012775;28;1123;-65
2020/12/07 12:38:21;;;;;;;;;;;22.30;53.90;;;;;;5017984;28;2155;-67
2020/12/07 12:40:46;;;;;;;;;;;22.30;53.90;;;;;;5022548;28;1032;-66
2020/12/07 12:43:12;;;;;;;;;;;22.20;53.90;;;;;;5018233;28;1091;-66
2020/12/07 12:45:37;;;;;;;;;;;22.20;54.00;;;;;;5012386;28;1107;-66
2020/12/07 12:48:03;;;;;;;;;;;22.20;54.00;;;;;;5012141;28;1898;-67
2020/12/07 12:50:28;;;;;;;;;;;22.20;54.00;;;;;;5012916;28;1065;-66
2020/12/07 12:52:54;;;;;;;;;;;22.20;54.00;;;;;;5039062;28;1115;-66
2020/12/07 12:55:19;;;;;;;;;;;22.20;54.10;;;;;;5010959;28;1065;-67
2020/12/07 12:57:45;;;;;;;;;;;22.20;54.10;;;;;;5012153;28;1037;-67
2020/12/07 13:00:10;;;;;;;;;;;22.20;54.10;;;;;;5012441;28;1296;-67
2020/12/07 13:02:36;;;;;;;;;;;22.10;54.10;;;;;;5010909;28;1085;-67
2020/12/07 13:05:01;;;;;;;;;;;22.10;54.20;;;;;;5012339;28;1337;-67
2020/12/07 13:07:27;;;;;;;;;;;22.10;54.20;;;;;;5011926;28;1969;-67
2020/12/07 13:09:52;;;;;;;;;;;22.10;54.30;;;;;;5012261;28;1230;-66
2020/12/07 13:12:18;;;;;;;;;;;22.10;54.30;;;;;;5028901;28;1080;-66
2020/12/07 13:14:43;;;;;;;;;;;22.10;54.30;;;;;;5024761;28;1837;-66
2020/12/07 13:17:12;;;;;;;;;;;22.10;54.30;;;;;;5026663;28;1092;-66
2020/12/07 13:19:37;;;;;;;;;;;22.10;54.40;;;;;;5018726;28;1201;-66
2020/12/07 13:29:28;;;;;;;;;;;22.00;54.50;;;;;;5016336;28;1969;-66
2020/12/07 13:31:54;;;;;;;;;;;22.00;54.60;;;;;;5015898;28;1131;-66
2020/12/07 13:34:19;;;;;;;;;;;21.90;54.60;;;;;;5016201;28;1065;-66
2020/12/07 13:36:45;;;;;;;;;;;21.90;54.60;;;;;;5014611;28;1119;-66
2020/12/07 13:39:11;;;;;;;;;;;21.90;54.50;;;;;;4998182;28;1308;-66
2020/12/07 13:41:36;;;;;;;;;;;21.90;54.60;;;;;;5015992;28;1119;-66
2020/12/07 13:44:02;;;;;;;;;;;21.90;54.70;;;;;;5027292;28;1366;-66
2020/12/07 13:46:27;;;;;;;;;;;21.90;54.70;;;;;;5031438;28;1244;-66
2020/12/07 13:48:53;;;;;;;;;;;21.90;54.70;;;;;;5035085;28;1907;-67
2020/12/07 13:51:19;;;;;;;;;;;21.80;54.70;;;;;;5037452;28;1159;-66
2020/12/07 13:53:47;;;;;;;;;;;21.80;54.70;;;;;;5035058;28;1055;-67
2020/12/07 13:56:13;;;;;;;;;;;21.80;54.70;;;;;;5015403;28;1104;-67
2020/12/07 13:58:38;;;;;;;;;;;21.80;54.80;;;;;;5015405;28;1241;-67
2020/12/07 14:01:04;;;;;;;;;;;21.80;54.80;;;;;;5014285;28;1085;-66
2020/12/07 14:03:34;;;;;;;;;;;21.80;54.80;;;;;;5015489;28;1119;-66
2020/12/07 14:05:59;;;;;;;;;;;21.80;54.90;;;;;;5013816;28;1163;-67
2020/12/07 14:08:25;;;;;;;;;;;21.80;54.90;;;;;;5015172;28;1922;-67
2020/12/07 14:10:50;;;;;;;;;;;21.80;54.90;;;;;;5015391;28;1130;-66
2020/12/07 14:13:16;;;;;;;;;;;21.80;54.90;;;;;;5030238;28;1220;-66
2020/12/07 14:15:41;;;;;;;;;;;21.70;54.90;;;;;;5015232;28;1056;-66
2020/12/07 14:18:11;;;;;;;;;;;21.70;55.00;;;;;;5014793;28;1363;-66
2020/12/07 14:20:45;;;;;;;;;;;21.70;55.00;;;;;;5029232;28;1147;-66
2020/12/07 14:23:23;;;;;;;;;;;21.70;55.00;;;;;;5013878;28;1038;-66
2020/12/07 14:26:00;;;;;;;;;;;21.70;55.00;;;;;;5015181;28;949;-65
2020/12/07 14:35:20;;;;;;;;;;;21.70;55.10;;;;;;5015010;28;1080;-66
2020/12/07 14:42:05;;;;;;;;;;;21.60;55.20;;;;;;5015245;28;1110;-66
2020/12/07 14:44:34;;;;;;;;;;;21.60;55.30;;;;;;5019192;28;1104;-66
2020/12/07 14:47:00;;;;;;;;;;;21.60;55.30;;;;;;5013250;28;1136;-67
2020/12/07 14:49:25;;;;;;;;;;;21.60;55.30;;;;;;5013236;28;1902;-67
2020/12/07 14:52:27;;;;;;;;;;;21.60;55.30;;;;;;5029782;28;1190;-66
2020/12/07 14:54:51;;;;;;;;;;;21.60;55.30;;;;;;5013824;28;1048;-66
2020/12/07 14:57:41;;;;;;;;;;;21.60;55.30;;;;;;5014218;28;1016;-66
2020/12/07 15:00:55;;;;;;;;;;;21.60;55.30;;;;;;5014241;28;1233;-66
2020/12/07 15:05:42;;;;;;;;;;;21.60;55.90;;;;;;5040151;28;1120;-66
2020/12/07 15:11:27;;;;;;;;;;;21.60;55.40;;;;;;5014186;28;1279;-66
2020/12/07 15:16:29;;;;;;;;;;;21.50;55.40;;;;;;5032677;28;1223;-66
2020/12/07 15:18:55;;;;;;;;;;;21.50;55.40;;;;;;5031945;28;1269;-66